sensor_id;sensor_type;location;lat;lon;timestamp;temperature;humidity
9925;DHT22;5001;51.674;7.868;2022-09-19T00:01:34;11.50;1.00
9925;DHT22;5001;51.674;7.868;2022-09-19T00:04:09;11.40;29.90
9925;DHT22;5001;51.674;7.868;2022-09-19T00:06:38;11.30;99.90
9925;DHT22;5001;51.674;7.868;2022-09-19T00:09:07;11.20;99.90
9925;DHT22;5001;51.674;7.868;2022-09-19T00:11:37;11.40;1.00
9925;DHT22;5001;51.674;7.868;2022-09-19T00:14:05;11.80;18.90
9925;DHT22;5001;51.674;7.868;2022-09-19T00:16:37;11.90;1.00
9925;DHT22;5001;51.674;7.868;2022-09-19T00:19:11;11.90;1.00
9925;DHT22;5001;51.674;7.868;2022-09-19T00:21:40;12.00;1.00
9925;DHT22;5001;51.674;7.868;2022-09-19T00:24:13;11.90;1.00
9925;DHT22;5001;51.674;7.868;2022-09-19T00:26:59;11.80;1.00
9925;DHT22;5001;51.674;7.868;2022-09-19T00:29:26;11.60;1.00
9925;DHT22;5001;51.674;7.868;2022-09-19T00:31:53;11.20;1.00
9925;DHT22;5001;51.674;7.868;2022-09-19T00:34:20;11.10;99.90
9925;DHT22;5001;51.674;7.868;2022-09-19T00:36:47;11.00;99.90
9925;DHT22;5001;51.674;7.868;2022-09-19T00:39:16;10.90;99.90
9925;DHT22;5001;51.674;7.868;2022-09-19T00:41:44;10.90;99.90
9925;DHT22;5001;51.674;7.868;2022-09-19T00:47:03;10.70;99.90
9925;DHT22;5001;51.674;7.868;2022-09-19T00:49:36;10.70;99.90
9925;DHT22;5001;51.674;7.868;2022-09-19T00:52:08;10.80;1.00
9925;DHT22;5001;51.674;7.868;2022-09-19T00:54:42;10.70;1.00
9925;DHT22;5001;51.674;7.868;2022-09-19T00:57:12;10.70;1.00
9925;DHT22;5001;51.674;7.868;2022-09-19T00:59:46;10.80;1.00
9925;DHT22;5001;51.674;7.868;2022-09-19T01:02:15;10.70;1.00
9925;DHT22;5001;51.674;7.868;2022-09-19T01:04:45;10.70;1.00
9925;DHT22;5001;51.674;7.868;2022-09-19T01:07:23;10.90;1.00
9925;DHT22;5001;51.674;7.868;2022-09-19T01:13:02;11.10;99.90
9925;DHT22;5001;51.674;7.868;2022-09-19T01:15:51;11.10;99.90
9925;DHT22;5001;51.674;7.868;2022-09-19T01:18:28;11.30;99.90
9925;DHT22;5001;51.674;7.868;2022-09-19T01:21:05;11.30;1.00
9925;DHT22;5001;51.674;7.868;2022-09-19T01:29:21;11.40;1.00
9925;DHT22;5001;51.674;7.868;2022-09-19T01:31:53;11.50;1.00
9925;DHT22;5001;51.674;7.868;2022-09-19T01:34:30;11.30;1.00
9925;DHT22;5001;51.674;7.868;2022-09-19T01:37:05;11.30;99.90
9925;DHT22;5001;51.674;7.868;2022-09-19T01:39:37;11.50;99.90
9925;DHT22;5001;51.674;7.868;2022-09-19T01:42:05;11.40;1.00
9925;DHT22;5001;51.674;7.868;2022-09-19T01:44:32;11.30;1.00
9925;DHT22;5001;51.674;7.868;2022-09-19T01:47:30;11.20;1.00
9925;DHT22;5001;51.674;7.868;2022-09-19T01:50:39;11.00;99.90
9925;DHT22;5001;51.674;7.868;2022-09-19T01:56:56;10.90;99.90
9925;DHT22;5001;51.674;7.868;2022-09-19T02:05:12;11.00;99.90
9925;DHT22;5001;51.674;7.868;2022-09-19T02:10:37;10.40;99.90
9925;DHT22;5001;51.674;7.868;2022-09-19T02:13:09;10.40;1.00
9925;DHT22;5001;51.674;7.868;2022-09-19T02:15:52;10.20;1.00
9925;DHT22;5001;51.674;7.868;2022-09-19T02:18:27;10.00;1.00
9925;DHT22;5001;51.674;7.868;2022-09-19T02:21:06;10.00;99.90
9925;DHT22;5001;51.674;7.868;2022-09-19T02:23:38;9.90;99.90
9925;DHT22;5001;51.674;7.868;2022-09-19T02:26:07;10.00;99.90
9925;DHT22;5001;51.674;7.868;2022-09-19T02:28:42;10.00;1.00
9925;DHT22;5001;51.674;7.868;2022-09-19T02:31:16;10.10;1.00
9925;DHT22;5001;51.674;7.868;2022-09-19T02:33:43;10.30;99.90
9925;DHT22;5001;51.674;7.868;2022-09-19T02:36:21;10.60;99.90
9925;DHT22;5001;51.674;7.868;2022-09-19T02:45:19;10.60;1.00
9925;DHT22;5001;51.674;7.868;2022-09-19T02:53:12;10.90;1.00
9925;DHT22;5001;51.674;7.868;2022-09-19T02:55:45;10.90;1.00
9925;DHT22;5001;51.674;7.868;2022-09-19T02:58:15;10.60;99.90
9925;DHT22;5001;51.674;7.868;2022-09-19T03:00:49;10.40;1.00
9925;DHT22;5001;51.674;7.868;2022-09-19T03:03:27;10.30;1.00
9925;DHT22;5001;51.674;7.868;2022-09-19T03:06:16;10.20;1.00
9925;DHT22;5001;51.674;7.868;2022-09-19T03:08:46;10.30;99.90
9925;DHT22;5001;51.674;7.868;2022-09-19T03:11:19;10.40;1.00
9925;DHT22;5001;51.674;7.868;2022-09-19T03:13:46;10.30;1.00
9925;DHT22;5001;51.674;7.868;2022-09-19T03:16:24;10.20;23.80
9925;DHT22;5001;51.674;7.868;2022-09-19T03:18:53;10.30;1.00
9925;DHT22;5001;51.674;7.868;2022-09-19T03:21:25;10.30;22.70
9925;DHT22;5001;51.674;7.868;2022-09-19T03:23:54;10.10;1.00
9925;DHT22;5001;51.674;7.868;2022-09-19T03:26:34;10.10;99.90
9925;DHT22;5001;51.674;7.868;2022-09-19T03:29:04;9.90;99.90
9925;DHT22;5001;51.674;7.868;2022-09-19T03:31:48;10.00;1.00
9925;DHT22;5001;51.674;7.868;2022-09-19T03:34:19;9.70;99.90
9925;DHT22;5001;51.674;7.868;2022-09-19T03:36:49;9.70;1.00
9925;DHT22;5001;51.674;7.868;2022-09-19T03:39:23;9.70;1.00
9925;DHT22;5001;51.674;7.868;2022-09-19T03:41:50;9.80;1.00
9925;DHT22;5001;51.674;7.868;2022-09-19T03:44:18;9.80;1.00
9925;DHT22;5001;51.674;7.868;2022-09-19T03:46:47;9.70;1.00
9925;DHT22;5001;51.674;7.868;2022-09-19T03:49:15;9.70;1.00
9925;DHT22;5001;51.674;7.868;2022-09-19T03:51:43;9.50;1.00
9925;DHT22;5001;51.674;7.868;2022-09-19T03:54:14;9.50;1.00
9925;DHT22;5001;51.674;7.868;2022-09-19T03:56:43;9.50;1.00
9925;DHT22;5001;51.674;7.868;2022-09-19T03:59:11;9.40;1.00
9925;DHT22;5001;51.674;7.868;2022-09-19T04:01:40;9.70;99.90
9925;DHT22;5001;51.674;7.868;2022-09-19T04:04:07;9.60;1.00
9925;DHT22;5001;51.674;7.868;2022-09-19T04:06:39;9.70;1.00
9925;DHT22;5001;51.674;7.868;2022-09-19T04:09:08;9.60;1.00
9925;DHT22;5001;51.674;7.868;2022-09-19T04:11:35;9.50;1.00
9925;DHT22;5001;51.674;7.868;2022-09-19T04:14:04;9.40;1.00
9925;DHT22;5001;51.674;7.868;2022-09-19T04:16:31;9.40;1.00
9925;DHT22;5001;51.674;7.868;2022-09-19T04:18:58;9.30;9.80
9925;DHT22;5001;51.674;7.868;2022-09-19T04:21:54;9.40;99.90
9925;DHT22;5001;51.674;7.868;2022-09-19T04:24:37;9.30;17.60
9925;DHT22;5001;51.674;7.868;2022-09-19T04:27:18;9.40;99.90
9925;DHT22;5001;51.674;7.868;2022-09-19T04:29:48;9.50;99.90
9925;DHT22;5001;51.674;7.868;2022-09-19T04:32:15;9.80;99.90
9925;DHT22;5001;51.674;7.868;2022-09-19T04:34:46;10.10;99.90
9925;DHT22;5001;51.674;7.868;2022-09-19T04:37:14;10.20;1.00
9925;DHT22;5001;51.674;7.868;2022-09-19T04:39:46;10.40;1.00
9925;DHT22;5001;51.674;7.868;2022-09-19T04:42:16;10.60;99.90
9925;DHT22;5001;51.674;7.868;2022-09-19T04:44:44;10.80;1.00
9925;DHT22;5001;51.674;7.868;2022-09-19T04:47:34;10.90;1.00
9925;DHT22;5001;51.674;7.868;2022-09-19T04:50:05;11.10;1.00
9925;DHT22;5001;51.674;7.868;2022-09-19T04:52:35;11.30;77.40
9925;DHT22;5001;51.674;7.868;2022-09-19T04:55:05;11.20;1.00
9925;DHT22;5001;51.674;7.868;2022-09-19T04:57:32;11.30;10.50
9925;DHT22;5001;51.674;7.868;2022-09-19T05:00:06;11.40;66.80
9925;DHT22;5001;51.674;7.868;2022-09-19T05:02:34;11.50;1.00
9925;DHT22;5001;51.674;7.868;2022-09-19T05:05:01;11.60;1.00
9925;DHT22;5001;51.674;7.868;2022-09-19T05:07:28;11.60;1.00
9925;DHT22;5001;51.674;7.868;2022-09-19T05:10:03;11.50;1.00
9925;DHT22;5001;51.674;7.868;2022-09-19T05:12:34;11.60;1.00
9925;DHT22;5001;51.674;7.868;2022-09-19T05:15:02;11.90;1.00
9925;DHT22;5001;51.674;7.868;2022-09-19T05:17:30;11.80;1.00
9925;DHT22;5001;51.674;7.868;2022-09-19T05:19:59;11.80;1.00
9925;DHT22;5001;51.674;7.868;2022-09-19T05:22:29;11.70;1.00
9925;DHT22;5001;51.674;7.868;2022-09-19T05:24:56;11.80;1.00
9925;DHT22;5001;51.674;7.868;2022-09-19T05:27:32;12.00;1.00
9925;DHT22;5001;51.674;7.868;2022-09-19T05:30:05;12.10;99.90
9925;DHT22;5001;51.674;7.868;2022-09-19T05:32:33;12.00;99.90
9925;DHT22;5001;51.674;7.868;2022-09-19T05:35:06;12.00;99.90
9925;DHT22;5001;51.674;7.868;2022-09-19T05:37:51;11.90;99.90
9925;DHT22;5001;51.674;7.868;2022-09-19T05:40:55;11.80;1.00
9925;DHT22;5001;51.674;7.868;2022-09-19T05:43:48;11.80;1.00
9925;DHT22;5001;51.674;7.868;2022-09-19T05:46:15;11.90;1.00
9925;DHT22;5001;51.674;7.868;2022-09-19T05:48:49;12.00;1.00
9925;DHT22;5001;51.674;7.868;2022-09-19T05:51:16;12.10;99.90
9925;DHT22;5001;51.674;7.868;2022-09-19T05:53:43;12.10;99.90
9925;DHT22;5001;51.674;7.868;2022-09-19T05:56:45;12.10;99.90
9925;DHT22;5001;51.674;7.868;2022-09-19T05:59:19;12.10;99.90
9925;DHT22;5001;51.674;7.868;2022-09-19T06:01:47;12.10;99.90
9925;DHT22;5001;51.674;7.868;2022-09-19T06:04:40;12.00;99.90
9925;DHT22;5001;51.674;7.868;2022-09-19T06:07:09;11.90;99.90
9925;DHT22;5001;51.674;7.868;2022-09-19T06:09:36;11.80;1.00
9925;DHT22;5001;51.674;7.868;2022-09-19T06:12:04;11.60;1.00
9925;DHT22;5001;51.674;7.868;2022-09-19T06:14:32;11.30;1.00
9925;DHT22;5001;51.674;7.868;2022-09-19T06:17:02;11.30;99.90
9925;DHT22;5001;51.674;7.868;2022-09-19T06:19:37;11.50;99.90
9925;DHT22;5001;51.674;7.868;2022-09-19T06:22:13;12.60;1.00
9925;DHT22;5001;51.674;7.868;2022-09-19T06:24:42;13.20;1.00
9925;DHT22;5001;51.674;7.868;2022-09-19T06:27:10;13.50;1.00
9925;DHT22;5001;51.674;7.868;2022-09-19T06:29:42;13.10;1.00
9925;DHT22;5001;51.674;7.868;2022-09-19T06:32:21;12.80;1.00
9925;DHT22;5001;51.674;7.868;2022-09-19T06:35:01;13.10;1.00
9925;DHT22;5001;51.674;7.868;2022-09-19T06:37:32;13.50;1.00
9925;DHT22;5001;51.674;7.868;2022-09-19T06:39:59;13.80;99.90
9925;DHT22;5001;51.674;7.868;2022-09-19T06:42:44;14.10;99.90
9925;DHT22;5001;51.674;7.868;2022-09-19T06:45:14;14.10;99.90
9925;DHT22;5001;51.674;7.868;2022-09-19T06:47:59;14.00;99.90
9925;DHT22;5001;51.674;7.868;2022-09-19T06:50:45;13.90;99.90
9925;DHT22;5001;51.674;7.868;2022-09-19T06:53:16;13.80;99.90
9925;DHT22;5001;51.674;7.868;2022-09-19T06:55:44;13.80;99.90
9925;DHT22;5001;51.674;7.868;2022-09-19T06:58:17;13.60;99.90
9925;DHT22;5001;51.674;7.868;2022-09-19T07:00:46;13.60;1.00
9925;DHT22;5001;51.674;7.868;2022-09-19T07:03:17;14.00;99.90
9925;DHT22;5001;51.674;7.868;2022-09-19T07:05:49;15.50;1.00
9925;DHT22;5001;51.674;7.868;2022-09-19T07:08:25;15.10;1.00
9925;DHT22;5001;51.674;7.868;2022-09-19T07:10:56;14.80;63.50
9925;DHT22;5001;51.674;7.868;2022-09-19T07:13:23;14.70;90.90
9925;DHT22;5001;51.674;7.868;2022-09-19T07:16:00;14.60;99.90
9925;DHT22;5001;51.674;7.868;2022-09-19T07:18:31;14.50;99.90
9925;DHT22;5001;51.674;7.868;2022-09-19T07:21:06;14.30;99.90
9925;DHT22;5001;51.674;7.868;2022-09-19T07:23:42;14.40;99.90
9925;DHT22;5001;51.674;7.868;2022-09-19T07:26:41;14.20;99.90
9925;DHT22;5001;51.674;7.868;2022-09-19T07:29:15;14.10;99.90
9925;DHT22;5001;51.674;7.868;2022-09-19T07:31:42;14.30;99.90
9925;DHT22;5001;51.674;7.868;2022-09-19T07:34:09;15.00;99.90
9925;DHT22;5001;51.674;7.868;2022-09-19T07:36:45;15.90;1.00
9925;DHT22;5001;51.674;7.868;2022-09-19T07:39:11;15.70;1.00
9925;DHT22;5001;51.674;7.868;2022-09-19T07:41:57;15.60;1.00
9925;DHT22;5001;51.674;7.868;2022-09-19T07:44:43;15.30;1.00
9925;DHT22;5001;51.674;7.868;2022-09-19T07:47:48;15.00;1.00
9925;DHT22;5001;51.674;7.868;2022-09-19T07:50:36;15.10;1.00
9925;DHT22;5001;51.674;7.868;2022-09-19T07:53:20;15.80;1.00
9925;DHT22;5001;51.674;7.868;2022-09-19T07:55:54;16.80;1.00
9925;DHT22;5001;51.674;7.868;2022-09-19T07:58:25;17.00;1.00
9925;DHT22;5001;51.674;7.868;2022-09-19T08:01:00;18.40;99.90
9925;DHT22;5001;51.674;7.868;2022-09-19T08:03:46;18.20;99.90
9925;DHT22;5001;51.674;7.868;2022-09-19T08:06:16;17.70;99.90
9925;DHT22;5001;51.674;7.868;2022-09-19T08:08:44;17.70;99.90
9925;DHT22;5001;51.674;7.868;2022-09-19T08:11:33;19.30;99.90
9925;DHT22;5001;51.674;7.868;2022-09-19T08:14:02;18.40;99.90
9925;DHT22;5001;51.674;7.868;2022-09-19T08:16:30;17.00;99.90
9925;DHT22;5001;51.674;7.868;2022-09-19T08:18:59;16.10;1.00
9925;DHT22;5001;51.674;7.868;2022-09-19T08:21:27;15.90;1.00
9925;DHT22;5001;51.674;7.868;2022-09-19T08:23:54;16.40;1.00
9925;DHT22;5001;51.674;7.868;2022-09-19T08:26:21;16.60;1.00
9925;DHT22;5001;51.674;7.868;2022-09-19T08:28:49;16.40;1.00
9925;DHT22;5001;51.674;7.868;2022-09-19T08:31:17;20.70;35.00
9925;DHT22;5001;51.674;7.868;2022-09-19T08:33:47;22.90;1.00
9925;DHT22;5001;51.674;7.868;2022-09-19T08:36:14;21.70;1.00
9925;DHT22;5001;51.674;7.868;2022-09-19T08:38:46;20.90;1.00
9925;DHT22;5001;51.674;7.868;2022-09-19T08:49:26;21.50;1.00
9925;DHT22;5001;51.674;7.868;2022-09-19T08:52:09;19.60;38.40
9925;DHT22;5001;51.674;7.868;2022-09-19T08:54:42;18.80;99.90
9925;DHT22;5001;51.674;7.868;2022-09-19T08:57:33;20.90;1.00
9925;DHT22;5001;51.674;7.868;2022-09-19T09:00:14;21.00;1.00
9925;DHT22;5001;51.674;7.868;2022-09-19T09:03:04;20.30;1.00
9925;DHT22;5001;51.674;7.868;2022-09-19T09:05:52;20.00;2.20
9925;DHT22;5001;51.674;7.868;2022-09-19T09:08:33;19.80;29.80
9925;DHT22;5001;51.674;7.868;2022-09-19T09:14:24;19.60;55.10
9925;DHT22;5001;51.674;7.868;2022-09-19T09:19:55;19.20;80.80
9925;DHT22;5001;51.674;7.868;2022-09-19T09:22:36;19.40;99.90
9925;DHT22;5001;51.674;7.868;2022-09-19T09:25:31;20.50;1.00
9925;DHT22;5001;51.674;7.868;2022-09-19T09:28:06;20.20;1.00
9925;DHT22;5001;51.674;7.868;2022-09-19T09:30:49;20.00;1.00
9925;DHT22;5001;51.674;7.868;2022-09-19T09:33:29;19.40;37.00
9925;DHT22;5001;51.674;7.868;2022-09-19T09:36:10;19.00;63.70
9925;DHT22;5001;51.674;7.868;2022-09-19T09:38:49;18.70;99.90
9925;DHT22;5001;51.674;7.868;2022-09-19T09:44:50;18.50;99.90
9925;DHT22;5001;51.674;7.868;2022-09-19T09:47:45;18.30;99.90
9925;DHT22;5001;51.674;7.868;2022-09-19T09:50:49;18.00;99.90
9925;DHT22;5001;51.674;7.868;2022-09-19T09:56:09;18.50;99.90
9925;DHT22;5001;51.674;7.868;2022-09-19T09:59:16;18.60;92.80
9925;DHT22;5001;51.674;7.868;2022-09-19T10:05:17;17.70;99.90
9925;DHT22;5001;51.674;7.868;2022-09-19T10:08:02;21.80;1.00
9925;DHT22;5001;51.674;7.868;2022-09-19T10:10:32;23.90;1.00
9925;DHT22;5001;51.674;7.868;2022-09-19T10:13:23;25.20;1.00
9925;DHT22;5001;51.674;7.868;2022-09-19T10:15:58;24.00;1.00
9925;DHT22;5001;51.674;7.868;2022-09-19T10:18:46;25.30;1.00
9925;DHT22;5001;51.674;7.868;2022-09-19T10:21:17;24.10;1.00
9925;DHT22;5001;51.674;7.868;2022-09-19T10:23:50;23.90;1.00
9925;DHT22;5001;51.674;7.868;2022-09-19T10:26:28;26.30;1.00
9925;DHT22;5001;51.674;7.868;2022-09-19T10:28:58;25.10;1.00
9925;DHT22;5001;51.674;7.868;2022-09-19T10:31:36;25.30;1.00
9925;DHT22;5001;51.674;7.868;2022-09-19T10:34:26;27.30;1.00
9925;DHT22;5001;51.674;7.868;2022-09-19T10:37:11;24.20;1.00
9925;DHT22;5001;51.674;7.868;2022-09-19T10:39:45;22.10;1.00
9925;DHT22;5001;51.674;7.868;2022-09-19T10:42:39;20.70;1.00
9925;DHT22;5001;51.674;7.868;2022-09-19T10:45:19;22.00;1.00
9925;DHT22;5001;51.674;7.868;2022-09-19T10:48:10;26.10;1.00
9925;DHT22;5001;51.674;7.868;2022-09-19T10:50:46;28.70;1.00
9925;DHT22;5001;51.674;7.868;2022-09-19T10:53:31;28.30;1.00
9925;DHT22;5001;51.674;7.868;2022-09-19T10:56:18;26.70;1.00
9925;DHT22;5001;51.674;7.868;2022-09-19T10:59:52;27.60;1.00
9925;DHT22;5001;51.674;7.868;2022-09-19T11:04:37;24.00;1.00
9925;DHT22;5001;51.674;7.868;2022-09-19T11:07:16;22.80;1.00
9925;DHT22;5001;51.674;7.868;2022-09-19T11:09:48;20.90;1.00
9925;DHT22;5001;51.674;7.868;2022-09-19T11:12:16;19.20;1.00
9925;DHT22;5001;51.674;7.868;2022-09-19T11:14:46;19.40;1.00
9925;DHT22;5001;51.674;7.868;2022-09-19T11:33:47;22.70;1.00
9925;DHT22;5001;51.674;7.868;2022-09-19T11:52:04;25.50;1.00
9925;DHT22;5001;51.674;7.868;2022-09-19T11:57:17;25.60;1.00
9925;DHT22;5001;51.674;7.868;2022-09-19T12:06:38;25.10;1.00
9925;DHT22;5001;51.674;7.868;2022-09-19T12:09:31;24.40;1.00
9925;DHT22;5001;51.674;7.868;2022-09-19T12:12:10;22.40;1.00
9925;DHT22;5001;51.674;7.868;2022-09-19T12:15:21;22.10;1.00
9925;DHT22;5001;51.674;7.868;2022-09-19T12:20:44;21.40;1.00
9925;DHT22;5001;51.674;7.868;2022-09-19T12:26:21;22.30;1.00
9925;DHT22;5001;51.674;7.868;2022-09-19T12:29:09;22.20;1.00
9925;DHT22;5001;51.674;7.868;2022-09-19T12:31:46;22.40;1.00
9925;DHT22;5001;51.674;7.868;2022-09-19T12:36:56;21.10;1.00
9925;DHT22;5001;51.674;7.868;2022-09-19T12:39:46;20.20;1.00
9925;DHT22;5001;51.674;7.868;2022-09-19T12:44:52;20.00;1.00
9925;DHT22;5001;51.674;7.868;2022-09-19T12:47:50;19.80;1.00
9925;DHT22;5001;51.674;7.868;2022-09-19T12:50:51;19.80;1.00
9925;DHT22;5001;51.674;7.868;2022-09-19T12:56:16;19.70;1.00
9925;DHT22;5001;51.674;7.868;2022-09-19T13:01:52;19.80;1.00
9925;DHT22;5001;51.674;7.868;2022-09-19T13:05:00;19.60;1.00
9925;DHT22;5001;51.674;7.868;2022-09-19T13:07:41;19.90;1.00
9925;DHT22;5001;51.674;7.868;2022-09-19T13:10:26;20.20;1.00
9925;DHT22;5001;51.674;7.868;2022-09-19T13:13:02;19.70;1.00
9925;DHT22;5001;51.674;7.868;2022-09-19T13:15:50;19.50;1.00
9925;DHT22;5001;51.674;7.868;2022-09-19T13:18:19;19.00;1.00
9925;DHT22;5001;51.674;7.868;2022-09-19T13:21:20;18.30;1.00
9925;DHT22;5001;51.674;7.868;2022-09-19T13:24:06;17.90;1.00
9925;DHT22;5001;51.674;7.868;2022-09-19T13:26:35;18.00;1.00
9925;DHT22;5001;51.674;7.868;2022-09-19T13:32:05;18.40;1.00
9925;DHT22;5001;51.674;7.868;2022-09-19T13:34:39;18.30;1.00
9925;DHT22;5001;51.674;7.868;2022-09-19T13:42:44;16.90;99.90
9925;DHT22;5001;51.674;7.868;2022-09-19T13:45:49;16.60;99.90
9925;DHT22;5001;51.674;7.868;2022-09-19T13:51:42;16.60;99.90
9925;DHT22;5001;51.674;7.868;2022-09-19T13:57:02;17.10;99.90
9925;DHT22;5001;51.674;7.868;2022-09-19T13:59:32;17.50;99.90
9925;DHT22;5001;51.674;7.868;2022-09-19T14:10:45;17.60;99.90
9925;DHT22;5001;51.674;7.868;2022-09-19T14:18:48;17.40;93.00
9925;DHT22;5001;51.674;7.868;2022-09-19T14:24:04;17.30;69.80
9925;DHT22;5001;51.674;7.868;2022-09-19T14:32:02;17.50;80.40
9925;DHT22;5001;51.674;7.868;2022-09-19T14:56:52;17.00;19.00
9925;DHT22;5001;51.674;7.868;2022-09-19T14:59:23;17.00;34.10
9925;DHT22;5001;51.674;7.868;2022-09-19T15:01:53;17.00;43.30
9925;DHT22;5001;51.674;7.868;2022-09-19T15:04:24;17.30;58.40
9925;DHT22;5001;51.674;7.868;2022-09-19T15:06:53;17.20;9.50
9925;DHT22;5001;51.674;7.868;2022-09-19T15:09:23;17.30;11.60
9925;DHT22;5001;51.674;7.868;2022-09-19T15:11:55;17.40;23.10
9925;DHT22;5001;51.674;7.868;2022-09-19T15:14:23;17.40;30.00
9925;DHT22;5001;51.674;7.868;2022-09-19T15:17:09;17.60;26.40
9925;DHT22;5001;51.674;7.868;2022-09-19T15:19:42;17.40;74.60
9925;DHT22;5001;51.674;7.868;2022-09-19T15:25:07;17.60;94.30
9925;DHT22;5001;51.674;7.868;2022-09-19T15:27:51;17.60;38.70
9925;DHT22;5001;51.674;7.868;2022-09-19T15:32:55;17.20;4.00
9925;DHT22;5001;51.674;7.868;2022-09-19T15:35:25;17.20;58.70
9925;DHT22;5001;51.674;7.868;2022-09-19T15:38:24;17.00;61.80
9925;DHT22;5001;51.674;7.868;2022-09-19T15:40:47;16.90;31.50
9925;DHT22;5001;51.674;7.868;2022-09-19T15:43:15;16.80;89.40
9925;DHT22;5001;51.674;7.868;2022-09-19T15:45:45;16.60;99.90
9925;DHT22;5001;51.674;7.868;2022-09-19T15:50:48;16.60;99.90
9925;DHT22;5001;51.674;7.868;2022-09-19T15:53:35;16.70;99.90
9925;DHT22;5001;51.674;7.868;2022-09-19T15:56:09;16.60;99.90
9925;DHT22;5001;51.674;7.868;2022-09-19T15:59:00;16.30;99.90
9925;DHT22;5001;51.674;7.868;2022-09-19T16:01:31;16.10;99.90
9925;DHT22;5001;51.674;7.868;2022-09-19T16:04:10;16.10;99.90
9925;DHT22;5001;51.674;7.868;2022-09-19T16:06:44;16.10;99.90
9925;DHT22;5001;51.674;7.868;2022-09-19T16:09:47;16.10;99.90
9925;DHT22;5001;51.674;7.868;2022-09-19T16:12:49;16.10;99.90
9925;DHT22;5001;51.674;7.868;2022-09-19T16:15:34;16.20;99.90
9925;DHT22;5001;51.674;7.868;2022-09-19T16:23:17;16.40;99.90
9925;DHT22;5001;51.674;7.868;2022-09-19T16:25:59;16.30;99.90
9925;DHT22;5001;51.674;7.868;2022-09-19T16:28:29;16.40;99.90
9925;DHT22;5001;51.674;7.868;2022-09-19T16:36:52;16.30;99.90
9925;DHT22;5001;51.674;7.868;2022-09-19T16:47:48;15.90;99.90
9925;DHT22;5001;51.674;7.868;2022-09-19T16:50:18;15.80;99.90
9925;DHT22;5001;51.674;7.868;2022-09-19T16:52:48;15.70;99.90
9925;DHT22;5001;51.674;7.868;2022-09-19T16:55:23;15.60;99.90
9925;DHT22;5001;51.674;7.868;2022-09-19T16:57:57;15.40;1.00
9925;DHT22;5001;51.674;7.868;2022-09-19T17:00:25;15.20;1.00
9925;DHT22;5001;51.674;7.868;2022-09-19T17:02:53;14.90;12.60
9925;DHT22;5001;51.674;7.868;2022-09-19T17:05:25;14.60;99.90
9925;DHT22;5001;51.674;7.868;2022-09-19T17:07:54;14.60;99.90
9925;DHT22;5001;51.674;7.868;2022-09-19T17:10:23;14.60;99.90
9925;DHT22;5001;51.674;7.868;2022-09-19T17:12:51;14.50;99.90
9925;DHT22;5001;51.674;7.868;2022-09-19T17:17:52;14.50;99.90
9925;DHT22;5001;51.674;7.868;2022-09-19T17:20:19;14.50;99.90
9925;DHT22;5001;51.674;7.868;2022-09-19T17:22:46;14.40;99.90
9925;DHT22;5001;51.674;7.868;2022-09-19T17:26:05;14.30;99.90
9925;DHT22;5001;51.674;7.868;2022-09-19T17:28:27;14.30;99.90
9925;DHT22;5001;51.674;7.868;2022-09-19T17:30:56;14.40;99.90
9925;DHT22;5001;51.674;7.868;2022-09-19T17:33:25;14.30;99.90
9925;DHT22;5001;51.674;7.868;2022-09-19T17:35:53;14.30;99.90
9925;DHT22;5001;51.674;7.868;2022-09-19T17:38:29;14.20;99.90
9925;DHT22;5001;51.674;7.868;2022-09-19T17:40:56;14.20;99.90
9925;DHT22;5001;51.674;7.868;2022-09-19T17:43:26;14.20;99.90
9925;DHT22;5001;51.674;7.868;2022-09-19T17:45:58;14.20;99.90
9925;DHT22;5001;51.674;7.868;2022-09-19T17:48:26;14.20;67.00
9925;DHT22;5001;51.674;7.868;2022-09-19T17:50:54;14.10;99.90
9925;DHT22;5001;51.674;7.868;2022-09-19T17:53:22;14.00;99.90
9925;DHT22;5001;51.674;7.868;2022-09-19T17:55:49;14.20;56.80
9925;DHT22;5001;51.674;7.868;2022-09-19T17:58:16;14.20;54.00
9925;DHT22;5001;51.674;7.868;2022-09-19T18:00:43;14.00;99.90
9925;DHT22;5001;51.674;7.868;2022-09-19T18:03:12;13.90;99.90
9925;DHT22;5001;51.674;7.868;2022-09-19T18:05:57;13.90;99.90
9925;DHT22;5001;51.674;7.868;2022-09-19T18:08:26;13.70;99.90
9925;DHT22;5001;51.674;7.868;2022-09-19T18:11:04;13.60;1.00
9925;DHT22;5001;51.674;7.868;2022-09-19T18:13:32;13.40;1.00
9925;DHT22;5001;51.674;7.868;2022-09-19T18:16:08;13.40;1.00
9925;DHT22;5001;51.674;7.868;2022-09-19T18:18:38;13.50;1.00
9925;DHT22;5001;51.674;7.868;2022-09-19T18:21:05;13.40;1.00
9925;DHT22;5001;51.674;7.868;2022-09-19T18:23:34;13.30;1.00
9925;DHT22;5001;51.674;7.868;2022-09-19T18:26:04;13.10;71.00
9925;DHT22;5001;51.674;7.868;2022-09-19T18:28:33;13.20;14.00
9925;DHT22;5001;51.674;7.868;2022-09-19T18:31:05;13.30;1.00
9925;DHT22;5001;51.674;7.868;2022-09-19T18:33:32;13.30;1.00
9925;DHT22;5001;51.674;7.868;2022-09-19T18:36:10;13.30;1.00
9925;DHT22;5001;51.674;7.868;2022-09-19T18:38:37;13.30;68.80
9925;DHT22;5001;51.674;7.868;2022-09-19T18:41:06;13.30;98.20
9925;DHT22;5001;51.674;7.868;2022-09-19T18:43:33;13.30;99.90
9925;DHT22;5001;51.674;7.868;2022-09-19T18:46:07;13.20;99.90
9925;DHT22;5001;51.674;7.868;2022-09-19T18:48:34;13.00;99.90
9925;DHT22;5001;51.674;7.868;2022-09-19T18:51:06;13.00;99.90
9925;DHT22;5001;51.674;7.868;2022-09-19T18:53:34;13.00;1.00
9925;DHT22;5001;51.674;7.868;2022-09-19T18:56:02;13.10;99.90
9925;DHT22;5001;51.674;7.868;2022-09-19T18:58:29;13.00;1.00
9925;DHT22;5001;51.674;7.868;2022-09-19T19:01:13;13.00;1.00
9925;DHT22;5001;51.674;7.868;2022-09-19T19:03:46;13.00;1.00
9925;DHT22;5001;51.674;7.868;2022-09-19T19:06:14;13.00;1.00
9925;DHT22;5001;51.674;7.868;2022-09-19T19:08:49;12.80;1.00
9925;DHT22;5001;51.674;7.868;2022-09-19T19:11:22;12.90;1.00
9925;DHT22;5001;51.674;7.868;2022-09-19T19:13:50;12.90;1.00
9925;DHT22;5001;51.674;7.868;2022-09-19T19:16:21;12.90;1.00
9925;DHT22;5001;51.674;7.868;2022-09-19T19:18:51;13.00;1.00
9925;DHT22;5001;51.674;7.868;2022-09-19T19:21:24;12.80;1.00
9925;DHT22;5001;51.674;7.868;2022-09-19T19:23:58;12.80;1.00
9925;DHT22;5001;51.674;7.868;2022-09-19T19:26:27;12.70;1.00
9925;DHT22;5001;51.674;7.868;2022-09-19T19:28:54;12.60;1.00
9925;DHT22;5001;51.674;7.868;2022-09-19T19:31:22;12.80;1.00
9925;DHT22;5001;51.674;7.868;2022-09-19T19:33:50;13.00;1.00
9925;DHT22;5001;51.674;7.868;2022-09-19T19:36:20;12.90;99.90
9925;DHT22;5001;51.674;7.868;2022-09-19T19:38:49;12.90;99.90
9925;DHT22;5001;51.674;7.868;2022-09-19T19:41:21;12.80;99.90
9925;DHT22;5001;51.674;7.868;2022-09-19T19:43:50;12.80;99.90
9925;DHT22;5001;51.674;7.868;2022-09-19T19:46:19;12.80;99.90
9925;DHT22;5001;51.674;7.868;2022-09-19T19:48:49;12.60;1.00
9925;DHT22;5001;51.674;7.868;2022-09-19T19:51:17;12.40;1.00
9925;DHT22;5001;51.674;7.868;2022-09-19T19:53:45;12.10;99.90
9925;DHT22;5001;51.674;7.868;2022-09-19T19:56:15;11.90;99.90
9925;DHT22;5001;51.674;7.868;2022-09-19T19:58:43;11.90;99.90
9925;DHT22;5001;51.674;7.868;2022-09-19T20:01:18;11.90;99.90
9925;DHT22;5001;51.674;7.868;2022-09-19T20:03:54;11.90;99.90
9925;DHT22;5001;51.674;7.868;2022-09-19T20:06:28;11.80;1.00
9925;DHT22;5001;51.674;7.868;2022-09-19T20:08:56;11.80;1.00
9925;DHT22;5001;51.674;7.868;2022-09-19T20:11:23;11.80;1.00
9925;DHT22;5001;51.674;7.868;2022-09-19T20:13:54;11.80;1.00
9925;DHT22;5001;51.674;7.868;2022-09-19T20:16:22;11.80;1.00
9925;DHT22;5001;51.674;7.868;2022-09-19T20:18:51;11.90;99.90
9925;DHT22;5001;51.674;7.868;2022-09-19T20:21:22;11.90;99.90
9925;DHT22;5001;51.674;7.868;2022-09-19T20:23:50;11.90;99.90
9925;DHT22;5001;51.674;7.868;2022-09-19T20:26:20;11.90;99.90
9925;DHT22;5001;51.674;7.868;2022-09-19T20:28:49;11.80;99.90
9925;DHT22;5001;51.674;7.868;2022-09-19T20:31:18;11.60;99.90